sensor_id;sensor_type;location;lat;lon;timestamp;temperature;humidity
38008;DHT22;75335;50.812;12.376;2024-03-06T00:00:21;8.10;86.60
38008;DHT22;75335;50.812;12.376;2024-03-06T00:02:49;8.10;86.30
38008;DHT22;75335;50.812;12.376;2024-03-06T00:05:17;8.10;86.00
38008;DHT22;75335;50.812;12.376;2024-03-06T00:07:48;8.00;86.70
38008;DHT22;75335;50.812;12.376;2024-03-06T00:10:15;8.10;86.20
38008;DHT22;75335;50.812;12.376;2024-03-06T00:12:43;8.10;86.00
38008;DHT22;75335;50.812;12.376;2024-03-06T00:15:12;8.10;85.80
38008;DHT22;75335;50.812;12.376;2024-03-06T00:17:40;8.00;86.20
38008;DHT22;75335;50.812;12.376;2024-03-06T00:20:12;8.00;85.90
38008;DHT22;75335;50.812;12.376;2024-03-06T00:22:41;8.00;85.90
38008;DHT22;75335;50.812;12.376;2024-03-06T00:25:09;8.00;85.70
38008;DHT22;75335;50.812;12.376;2024-03-06T00:27:37;8.10;85.30
38008;DHT22;75335;50.812;12.376;2024-03-06T00:30:06;8.10;85.30
38008;DHT22;75335;50.812;12.376;2024-03-06T00:32:37;8.10;85.20
38008;DHT22;75335;50.812;12.376;2024-03-06T00:35:06;8.10;85.10
38008;DHT22;75335;50.812;12.376;2024-03-06T00:37:35;8.10;84.90
38008;DHT22;75335;50.812;12.376;2024-03-06T00:40:03;8.10;84.50
38008;DHT22;75335;50.812;12.376;2024-03-06T00:42:32;8.00;85.00
38008;DHT22;75335;50.812;12.376;2024-03-06T00:45:02;8.00;85.20
38008;DHT22;75335;50.812;12.376;2024-03-06T00:47:31;7.90;85.70
38008;DHT22;75335;50.812;12.376;2024-03-06T00:50:02;7.90;85.90
38008;DHT22;75335;50.812;12.376;2024-03-06T00:52:33;7.80;86.40
38008;DHT22;75335;50.812;12.376;2024-03-06T00:55:02;7.80;85.90
38008;DHT22;75335;50.812;12.376;2024-03-06T00:57:31;7.70;86.20
38008;DHT22;75335;50.812;12.376;2024-03-06T01:00:02;7.70;86.50
38008;DHT22;75335;50.812;12.376;2024-03-06T01:02:36;7.80;86.20
38008;DHT22;75335;50.812;12.376;2024-03-06T01:05:06;7.80;86.60
38008;DHT22;75335;50.812;12.376;2024-03-06T01:07:36;7.80;86.40
38008;DHT22;75335;50.812;12.376;2024-03-06T01:10:06;7.70;86.50
38008;DHT22;75335;50.812;12.376;2024-03-06T01:12:34;7.60;87.20
38008;DHT22;75335;50.812;12.376;2024-03-06T01:15:04;7.70;86.50
38008;DHT22;75335;50.812;12.376;2024-03-06T01:17:35;7.60;86.50
38008;DHT22;75335;50.812;12.376;2024-03-06T01:20:07;7.60;86.50
38008;DHT22;75335;50.812;12.376;2024-03-06T01:22:37;7.50;87.00
38008;DHT22;75335;50.812;12.376;2024-03-06T01:25:06;7.50;87.10
38008;DHT22;75335;50.812;12.376;2024-03-06T01:27:35;7.50;87.00
38008;DHT22;75335;50.812;12.376;2024-03-06T01:30:04;7.40;87.10
38008;DHT22;75335;50.812;12.376;2024-03-06T01:32:33;7.60;86.40
38008;DHT22;75335;50.812;12.376;2024-03-06T01:35:03;7.60;86.10
38008;DHT22;75335;50.812;12.376;2024-03-06T01:37:35;7.70;86.00
38008;DHT22;75335;50.812;12.376;2024-03-06T01:40:05;7.60;86.50
38008;DHT22;75335;50.812;12.376;2024-03-06T01:42:35;7.50;86.60
38008;DHT22;75335;50.812;12.376;2024-03-06T01:45:05;7.60;86.50
38008;DHT22;75335;50.812;12.376;2024-03-06T01:47:39;7.50;86.60
38008;DHT22;75335;50.812;12.376;2024-03-06T01:50:12;7.40;86.40
38008;DHT22;75335;50.812;12.376;2024-03-06T01:52:41;7.50;86.40
38008;DHT22;75335;50.812;12.376;2024-03-06T01:55:10;7.50;86.20
38008;DHT22;75335;50.812;12.376;2024-03-06T01:57:40;7.50;86.30
38008;DHT22;75335;50.812;12.376;2024-03-06T02:00:10;7.60;86.40
38008;DHT22;75335;50.812;12.376;2024-03-06T02:02:42;7.50;86.20
38008;DHT22;75335;50.812;12.376;2024-03-06T02:05:16;7.60;86.10
38008;DHT22;75335;50.812;12.376;2024-03-06T02:07:46;7.60;85.90
38008;DHT22;75335;50.812;12.376;2024-03-06T02:10:15;7.60;85.90
38008;DHT22;75335;50.812;12.376;2024-03-06T02:12:44;7.60;86.20
38008;DHT22;75335;50.812;12.376;2024-03-06T02:15:17;7.50;85.70
38008;DHT22;75335;50.812;12.376;2024-03-06T02:18:05;7.60;85.30
38008;DHT22;75335;50.812;12.376;2024-03-06T02:20:39;7.50;85.50
38008;DHT22;75335;50.812;12.376;2024-03-06T02:23:07;7.60;85.30
38008;DHT22;75335;50.812;12.376;2024-03-06T02:25:36;7.50;85.20
38008;DHT22;75335;50.812;12.376;2024-03-06T02:28:05;7.50;84.90
38008;DHT22;75335;50.812;12.376;2024-03-06T02:30:33;7.40;85.30
38008;DHT22;75335;50.812;12.376;2024-03-06T02:33:03;7.50;85.30
38008;DHT22;75335;50.812;12.376;2024-03-06T02:35:31;7.50;85.00
38008;DHT22;75335;50.812;12.376;2024-03-06T02:38:03;7.40;85.30
38008;DHT22;75335;50.812;12.376;2024-03-06T02:40:31;7.40;85.20
38008;DHT22;75335;50.812;12.376;2024-03-06T02:43:01;7.40;86.00
38008;DHT22;75335;50.812;12.376;2024-03-06T02:45:31;7.40;85.50
38008;DHT22;75335;50.812;12.376;2024-03-06T02:47:59;7.50;85.00
38008;DHT22;75335;50.812;12.376;2024-03-06T02:50:29;7.40;85.10
38008;DHT22;75335;50.812;12.376;2024-03-06T02:52:56;7.40;85.00
38008;DHT22;75335;50.812;12.376;2024-03-06T02:55:26;7.40;84.80
38008;DHT22;75335;50.812;12.376;2024-03-06T02:57:54;7.40;84.70
38008;DHT22;75335;50.812;12.376;2024-03-06T03:00:24;7.50;85.20
38008;DHT22;75335;50.812;12.376;2024-03-06T03:02:52;7.40;84.70
38008;DHT22;75335;50.812;12.376;2024-03-06T03:05:21;7.40;85.20
38008;DHT22;75335;50.812;12.376;2024-03-06T03:07:51;7.40;85.20
38008;DHT22;75335;50.812;12.376;2024-03-06T03:10:18;7.40;85.50
38008;DHT22;75335;50.812;12.376;2024-03-06T03:12:48;7.40;85.10
38008;DHT22;75335;50.812;12.376;2024-03-06T03:15:16;7.20;86.20
38008;DHT22;75335;50.812;12.376;2024-03-06T03:17:45;7.30;85.80
38008;DHT22;75335;50.812;12.376;2024-03-06T03:20:13;7.30;85.60
38008;DHT22;75335;50.812;12.376;2024-03-06T03:22:42;7.30;85.40
38008;DHT22;75335;50.812;12.376;2024-03-06T03:25:13;7.30;85.80
38008;DHT22;75335;50.812;12.376;2024-03-06T03:27:41;7.20;86.10
38008;DHT22;75335;50.812;12.376;2024-03-06T03:30:11;7.20;86.00
38008;DHT22;75335;50.812;12.376;2024-03-06T03:32:39;7.30;86.30
38008;DHT22;75335;50.812;12.376;2024-03-06T03:35:08;7.20;86.50
38008;DHT22;75335;50.812;12.376;2024-03-06T03:37:36;7.30;86.20
38008;DHT22;75335;50.812;12.376;2024-03-06T03:40:07;7.30;86.10
38008;DHT22;75335;50.812;12.376;2024-03-06T03:42:38;7.30;86.30
38008;DHT22;75335;50.812;12.376;2024-03-06T03:45:08;7.30;86.00
38008;DHT22;75335;50.812;12.376;2024-03-06T03:47:38;7.30;85.70
38008;DHT22;75335;50.812;12.376;2024-03-06T03:50:07;7.20;86.30
38008;DHT22;75335;50.812;12.376;2024-03-06T03:52:36;7.20;86.50
38008;DHT22;75335;50.812;12.376;2024-03-06T03:55:08;7.20;86.50
38008;DHT22;75335;50.812;12.376;2024-03-06T03:57:38;7.10;86.20
38008;DHT22;75335;50.812;12.376;2024-03-06T04:00:07;7.20;86.30
38008;DHT22;75335;50.812;12.376;2024-03-06T04:02:40;7.20;86.40
38008;DHT22;75335;50.812;12.376;2024-03-06T04:05:08;7.30;86.10
38008;DHT22;75335;50.812;12.376;2024-03-06T04:07:36;7.10;86.50
38008;DHT22;75335;50.812;12.376;2024-03-06T04:10:06;7.20;86.10
38008;DHT22;75335;50.812;12.376;2024-03-06T04:12:38;7.20;86.10
38008;DHT22;75335;50.812;12.376;2024-03-06T04:15:08;7.10;86.40
38008;DHT22;75335;50.812;12.376;2024-03-06T04:17:39;7.20;85.80
38008;DHT22;75335;50.812;12.376;2024-03-06T04:20:11;7.10;85.40
38008;DHT22;75335;50.812;12.376;2024-03-06T04:22:41;7.20;85.40
38008;DHT22;75335;50.812;12.376;2024-03-06T04:25:13;7.10;85.10
38008;DHT22;75335;50.812;12.376;2024-03-06T04:27:41;7.00;85.60
38008;DHT22;75335;50.812;12.376;2024-03-06T04:30:12;6.90;86.00
38008;DHT22;75335;50.812;12.376;2024-03-06T04:32:42;7.00;85.50
38008;DHT22;75335;50.812;12.376;2024-03-06T04:35:11;6.90;85.90
38008;DHT22;75335;50.812;12.376;2024-03-06T04:37:39;7.00;85.50
38008;DHT22;75335;50.812;12.376;2024-03-06T04:40:08;7.10;85.00
38008;DHT22;75335;50.812;12.376;2024-03-06T04:42:36;7.00;85.50
38008;DHT22;75335;50.812;12.376;2024-03-06T04:45:10;7.10;85.20
38008;DHT22;75335;50.812;12.376;2024-03-06T04:47:38;7.00;85.00
38008;DHT22;75335;50.812;12.376;2024-03-06T04:50:10;7.00;85.10
38008;DHT22;75335;50.812;12.376;2024-03-06T04:52:38;6.90;85.70
38008;DHT22;75335;50.812;12.376;2024-03-06T04:55:08;6.90;85.30
38008;DHT22;75335;50.812;12.376;2024-03-06T04:57:37;6.90;85.20
38008;DHT22;75335;50.812;12.376;2024-03-06T05:00:09;6.90;85.30
38008;DHT22;75335;50.812;12.376;2024-03-06T05:02:38;6.90;85.50
38008;DHT22;75335;50.812;12.376;2024-03-06T05:05:09;6.90;85.30
38008;DHT22;75335;50.812;12.376;2024-03-06T05:07:37;6.90;85.00
38008;DHT22;75335;50.812;12.376;2024-03-06T05:10:07;6.80;85.50
38008;DHT22;75335;50.812;12.376;2024-03-06T05:12:37;6.90;85.30
38008;DHT22;75335;50.812;12.376;2024-03-06T05:15:05;6.80;85.00
38008;DHT22;75335;50.812;12.376;2024-03-06T05:17:35;6.70;85.20
38008;DHT22;75335;50.812;12.376;2024-03-06T05:20:03;6.70;85.40
38008;DHT22;75335;50.812;12.376;2024-03-06T05:22:34;6.70;85.60
38008;DHT22;75335;50.812;12.376;2024-03-06T05:25:02;6.70;85.80
38008;DHT22;75335;50.812;12.376;2024-03-06T05:27:30;6.70;85.70
38008;DHT22;75335;50.812;12.376;2024-03-06T05:29:58;6.70;85.20
38008;DHT22;75335;50.812;12.376;2024-03-06T05:32:27;6.60;85.80
38008;DHT22;75335;50.812;12.376;2024-03-06T05:34:57;6.60;85.80
38008;DHT22;75335;50.812;12.376;2024-03-06T05:37:25;6.50;85.80
38008;DHT22;75335;50.812;12.376;2024-03-06T05:39:57;6.40;86.50
38008;DHT22;75335;50.812;12.376;2024-03-06T05:42:24;6.50;85.80
38008;DHT22;75335;50.812;12.376;2024-03-06T05:44:53;6.50;85.70
38008;DHT22;75335;50.812;12.376;2024-03-06T05:47:27;6.60;85.40
38008;DHT22;75335;50.812;12.376;2024-03-06T05:49:59;6.50;86.10
38008;DHT22;75335;50.812;12.376;2024-03-06T05:52:31;6.40;86.30
38008;DHT22;75335;50.812;12.376;2024-03-06T05:55:01;6.50;85.90
38008;DHT22;75335;50.812;12.376;2024-03-06T05:57:32;6.40;85.80
38008;DHT22;75335;50.812;12.376;2024-03-06T06:00:00;6.40;85.60
38008;DHT22;75335;50.812;12.376;2024-03-06T06:02:28;6.30;86.30
38008;DHT22;75335;50.812;12.376;2024-03-06T06:05:00;6.40;86.20
38008;DHT22;75335;50.812;12.376;2024-03-06T06:07:30;6.40;86.30
38008;DHT22;75335;50.812;12.376;2024-03-06T06:09:57;6.50;85.90
38008;DHT22;75335;50.812;12.376;2024-03-06T06:12:27;6.40;86.20
38008;DHT22;75335;50.812;12.376;2024-03-06T06:14:56;6.40;86.30
38008;DHT22;75335;50.812;12.376;2024-03-06T06:17:23;6.40;86.20
38008;DHT22;75335;50.812;12.376;2024-03-06T06:19:52;6.40;86.30
38008;DHT22;75335;50.812;12.376;2024-03-06T06:22:21;6.50;85.90
38008;DHT22;75335;50.812;12.376;2024-03-06T06:24:50;6.50;85.40
38008;DHT22;75335;50.812;12.376;2024-03-06T06:27:18;6.60;84.80
38008;DHT22;75335;50.812;12.376;2024-03-06T06:29:47;6.50;85.80
38008;DHT22;75335;50.812;12.376;2024-03-06T06:32:15;6.60;85.50
38008;DHT22;75335;50.812;12.376;2024-03-06T06:34:44;6.60;85.40
38008;DHT22;75335;50.812;12.376;2024-03-06T06:37:14;6.50;85.50
38008;DHT22;75335;50.812;12.376;2024-03-06T06:39:42;6.60;85.70
38008;DHT22;75335;50.812;12.376;2024-03-06T06:42:11;6.80;85.20
38008;DHT22;75335;50.812;12.376;2024-03-06T06:44:39;6.70;85.00
38008;DHT22;75335;50.812;12.376;2024-03-06T06:47:10;6.80;84.60
38008;DHT22;75335;50.812;12.376;2024-03-06T06:49:39;6.80;84.00
38008;DHT22;75335;50.812;12.376;2024-03-06T06:52:07;6.80;83.80
38008;DHT22;75335;50.812;12.376;2024-03-06T06:54:36;6.70;84.50
38008;DHT22;75335;50.812;12.376;2024-03-06T06:57:06;6.80;84.30
38008;DHT22;75335;50.812;12.376;2024-03-06T06:59:34;6.90;83.90
38008;DHT22;75335;50.812;12.376;2024-03-06T07:02:02;6.90;83.70
38008;DHT22;75335;50.812;12.376;2024-03-06T07:04:32;6.90;83.40
38008;DHT22;75335;50.812;12.376;2024-03-06T07:07:01;6.90;83.00
38008;DHT22;75335;50.812;12.376;2024-03-06T07:09:30;6.90;82.70
38008;DHT22;75335;50.812;12.376;2024-03-06T07:12:07;6.90;83.00
38008;DHT22;75335;50.812;12.376;2024-03-06T07:14:58;7.00;83.00
38008;DHT22;75335;50.812;12.376;2024-03-06T07:17:30;7.00;82.40
38008;DHT22;75335;50.812;12.376;2024-03-06T07:20:12;7.00;82.70
38008;DHT22;75335;50.812;12.376;2024-03-06T07:22:47;7.00;82.70
38008;DHT22;75335;50.812;12.376;2024-03-06T07:25:20;6.90;83.00
38008;DHT22;75335;50.812;12.376;2024-03-06T07:27:53;6.90;83.40
38008;DHT22;75335;50.812;12.376;2024-03-06T07:30:23;6.70;84.10
38008;DHT22;75335;50.812;12.376;2024-03-06T07:32:51;6.90;83.10
38008;DHT22;75335;50.812;12.376;2024-03-06T07:35:23;7.10;82.30
38008;DHT22;75335;50.812;12.376;2024-03-06T07:37:52;7.10;82.70
38008;DHT22;75335;50.812;12.376;2024-03-06T07:40:20;7.20;82.50
38008;DHT22;75335;50.812;12.376;2024-03-06T07:42:50;7.50;81.60
38008;DHT22;75335;50.812;12.376;2024-03-06T07:45:18;7.60;81.00
38008;DHT22;75335;50.812;12.376;2024-03-06T07:47:46;7.60;81.00
38008;DHT22;75335;50.812;12.376;2024-03-06T07:50:14;7.70;80.50
38008;DHT22;75335;50.812;12.376;2024-03-06T07:52:47;7.70;80.70
38008;DHT22;75335;50.812;12.376;2024-03-06T07:55:16;8.00;79.70
38008;DHT22;75335;50.812;12.376;2024-03-06T07:57:47;8.20;78.90
38008;DHT22;75335;50.812;12.376;2024-03-06T08:00:15;8.40;78.20
38008;DHT22;75335;50.812;12.376;2024-03-06T08:02:46;8.50;78.10
38008;DHT22;75335;50.812;12.376;2024-03-06T08:05:16;8.60;77.60
38008;DHT22;75335;50.812;12.376;2024-03-06T08:07:49;8.60;78.50
38008;DHT22;75335;50.812;12.376;2024-03-06T08:10:16;9.00;78.00
38008;DHT22;75335;50.812;12.376;2024-03-06T08:12:45;9.50;77.60
38008;DHT22;75335;50.812;12.376;2024-03-06T08:15:15;9.70;75.60
38008;DHT22;75335;50.812;12.376;2024-03-06T08:17:43;9.40;75.20
38008;DHT22;75335;50.812;12.376;2024-03-06T08:20:12;9.50;74.70
38008;DHT22;75335;50.812;12.376;2024-03-06T08:22:41;9.70;73.60
38008;DHT22;75335;50.812;12.376;2024-03-06T08:25:18;9.80;73.70
38008;DHT22;75335;50.812;12.376;2024-03-06T08:27:52;9.90;72.70
38008;DHT22;75335;50.812;12.376;2024-03-06T08:30:24;10.10;73.10
38008;DHT22;75335;50.812;12.376;2024-03-06T08:32:53;10.00;74.10
38008;DHT22;75335;50.812;12.376;2024-03-06T08:35:21;10.10;72.60
38008;DHT22;75335;50.812;12.376;2024-03-06T08:37:50;10.10;73.30
38008;DHT22;75335;50.812;12.376;2024-03-06T08:40:20;10.30;72.20
38008;DHT22;75335;50.812;12.376;2024-03-06T08:42:50;10.30;71.70
38008;DHT22;75335;50.812;12.376;2024-03-06T08:45:18;10.50;70.90
38008;DHT22;75335;50.812;12.376;2024-03-06T08:47:46;10.70;71.10
38008;DHT22;75335;50.812;12.376;2024-03-06T08:50:14;10.70;71.20
38008;DHT22;75335;50.812;12.376;2024-03-06T08:52:42;10.80;70.90
38008;DHT22;75335;50.812;12.376;2024-03-06T08:55:11;11.00;70.00
38008;DHT22;75335;50.812;12.376;2024-03-06T08:57:41;11.20;70.30
38008;DHT22;75335;50.812;12.376;2024-03-06T09:00:11;11.20;69.80
38008;DHT22;75335;50.812;12.376;2024-03-06T09:02:40;11.10;70.20
38008;DHT22;75335;50.812;12.376;2024-03-06T09:05:11;11.20;70.00
38008;DHT22;75335;50.812;12.376;2024-03-06T09:07:42;11.20;69.00
38008;DHT22;75335;50.812;12.376;2024-03-06T09:10:11;11.30;70.50
38008;DHT22;75335;50.812;12.376;2024-03-06T09:12:43;11.50;69.60
38008;DHT22;75335;50.812;12.376;2024-03-06T09:15:12;11.70;70.50
38008;DHT22;75335;50.812;12.376;2024-03-06T09:17:42;11.50;70.20
38008;DHT22;75335;50.812;12.376;2024-03-06T09:20:11;11.90;68.80
38008;DHT22;75335;50.812;12.376;2024-03-06T09:22:42;11.90;69.00
38008;DHT22;75335;50.812;12.376;2024-03-06T09:25:10;12.10;67.90
38008;DHT22;75335;50.812;12.376;2024-03-06T09:27:39;12.10;68.30
38008;DHT22;75335;50.812;12.376;2024-03-06T09:30:24;12.00;67.90
38008;DHT22;75335;50.812;12.376;2024-03-06T09:32:55;12.00;67.80
38008;DHT22;75335;50.812;12.376;2024-03-06T09:35:22;12.10;67.40
38008;DHT22;75335;50.812;12.376;2024-03-06T09:37:51;12.10;67.70
38008;DHT22;75335;50.812;12.376;2024-03-06T09:40:22;12.20;66.70
38008;DHT22;75335;50.812;12.376;2024-03-06T09:42:50;12.40;66.10
38008;DHT22;75335;50.812;12.376;2024-03-06T09:45:19;12.40;66.10
38008;DHT22;75335;50.812;12.376;2024-03-06T09:47:50;12.30;66.70
38008;DHT22;75335;50.812;12.376;2024-03-06T09:50:21;12.40;67.00
38008;DHT22;75335;50.812;12.376;2024-03-06T09:52:51;12.50;66.40
38008;DHT22;75335;50.812;12.376;2024-03-06T09:55:22;12.60;66.10
38008;DHT22;75335;50.812;12.376;2024-03-06T09:57:51;12.70;65.00
38008;DHT22;75335;50.812;12.376;2024-03-06T10:00:20;12.60;66.60
38008;DHT22;75335;50.812;12.376;2024-03-06T10:02:57;12.50;65.50
38008;DHT22;75335;50.812;12.376;2024-03-06T10:05:50;12.70;66.10
38008;DHT22;75335;50.812;12.376;2024-03-06T10:08:21;13.20;64.90
38008;DHT22;75335;50.812;12.376;2024-03-06T10:10:53;13.60;62.70
38008;DHT22;75335;50.812;12.376;2024-03-06T10:13:24;13.80;63.20
38008;DHT22;75335;50.812;12.376;2024-03-06T10:15:57;14.30;61.70
38008;DHT22;75335;50.812;12.376;2024-03-06T10:29:25;15.10;58.50
38008;DHT22;75335;50.812;12.376;2024-03-06T10:32:24;15.40;57.90
38008;DHT22;75335;50.812;12.376;2024-03-06T10:35:02;15.90;56.30
38008;DHT22;75335;50.812;12.376;2024-03-06T10:37:40;16.20;56.60
38008;DHT22;75335;50.812;12.376;2024-03-06T10:40:15;16.50;55.60
38008;DHT22;75335;50.812;12.376;2024-03-06T10:42:45;16.70;53.60
38008;DHT22;75335;50.812;12.376;2024-03-06T10:45:14;17.00;54.20
38008;DHT22;75335;50.812;12.376;2024-03-06T10:47:46;17.50;52.00
38008;DHT22;75335;50.812;12.376;2024-03-06T10:50:39;17.80;51.50
38008;DHT22;75335;50.812;12.376;2024-03-06T10:53:14;17.10;52.50
38008;DHT22;75335;50.812;12.376;2024-03-06T10:55:44;18.50;48.20
38008;DHT22;75335;50.812;12.376;2024-03-06T10:58:24;19.50;45.00
38008;DHT22;75335;50.812;12.376;2024-03-06T11:00:53;20.40;43.20
38008;DHT22;75335;50.812;12.376;2024-03-06T11:03:24;21.80;40.50
38008;DHT22;75335;50.812;12.376;2024-03-06T11:05:55;22.50;38.90
38008;DHT22;75335;50.812;12.376;2024-03-06T11:08:23;21.90;38.60
38008;DHT22;75335;50.812;12.376;2024-03-06T11:11:21;20.30;41.90
38008;DHT22;75335;50.812;12.376;2024-03-06T11:13:55;19.80;43.60
38008;DHT22;75335;50.812;12.376;2024-03-06T11:16:29;20.00;43.90
38008;DHT22;75335;50.812;12.376;2024-03-06T11:19:06;21.30;40.90
38008;DHT22;75335;50.812;12.376;2024-03-06T11:21:45;22.50;38.50
38008;DHT22;75335;50.812;12.376;2024-03-06T11:24:17;23.70;35.10
38008;DHT22;75335;50.812;12.376;2024-03-06T11:26:47;24.70;33.20
38008;DHT22;75335;50.812;12.376;2024-03-06T11:29:19;25.30;32.70
38008;DHT22;75335;50.812;12.376;2024-03-06T11:32:01;25.20;33.00
38008;DHT22;75335;50.812;12.376;2024-03-06T11:34:37;25.30;32.10
38008;DHT22;75335;50.812;12.376;2024-03-06T11:37:07;25.00;32.40
38008;DHT22;75335;50.812;12.376;2024-03-06T11:39:36;25.60;31.00
38008;DHT22;75335;50.812;12.376;2024-03-06T11:42:05;25.30;31.40
38008;DHT22;75335;50.812;12.376;2024-03-06T11:44:35;25.20;31.20
38008;DHT22;75335;50.812;12.376;2024-03-06T11:47:04;25.60;30.70
38008;DHT22;75335;50.812;12.376;2024-03-06T11:49:34;25.40;31.20
38008;DHT22;75335;50.812;12.376;2024-03-06T11:52:06;25.20;31.50
38008;DHT22;75335;50.812;12.376;2024-03-06T11:54:36;25.80;29.80
38008;DHT22;75335;50.812;12.376;2024-03-06T11:57:05;25.80;29.50
38008;DHT22;75335;50.812;12.376;2024-03-06T11:59:33;26.00;29.20
38008;DHT22;75335;50.812;12.376;2024-03-06T12:02:05;25.90;29.50
38008;DHT22;75335;50.812;12.376;2024-03-06T12:04:36;25.60;29.50
38008;DHT22;75335;50.812;12.376;2024-03-06T12:07:05;25.80;28.40
38008;DHT22;75335;50.812;12.376;2024-03-06T12:09:35;26.20;28.30
38008;DHT22;75335;50.812;12.376;2024-03-06T12:12:05;26.10;28.10
38008;DHT22;75335;50.812;12.376;2024-03-06T12:14:35;26.20;27.80
38008;DHT22;75335;50.812;12.376;2024-03-06T12:17:04;26.00;28.10
38008;DHT22;75335;50.812;12.376;2024-03-06T12:19:34;25.70;28.60
38008;DHT22;75335;50.812;12.376;2024-03-06T12:22:03;25.70;28.50
38008;DHT22;75335;50.812;12.376;2024-03-06T12:24:33;25.50;28.60
38008;DHT22;75335;50.812;12.376;2024-03-06T12:27:03;25.10;28.80
38008;DHT22;75335;50.812;12.376;2024-03-06T12:29:35;25.00;28.70
38008;DHT22;75335;50.812;12.376;2024-03-06T12:32:04;24.40;29.00
38008;DHT22;75335;50.812;12.376;2024-03-06T12:34:34;23.80;30.00
38008;DHT22;75335;50.812;12.376;2024-03-06T12:37:08;23.20;30.80
38008;DHT22;75335;50.812;12.376;2024-03-06T12:39:40;23.00;31.30
38008;DHT22;75335;50.812;12.376;2024-03-06T12:42:13;22.60;31.80
38008;DHT22;75335;50.812;12.376;2024-03-06T12:44:50;22.10;32.80
38008;DHT22;75335;50.812;12.376;2024-03-06T12:47:18;22.10;33.10
38008;DHT22;75335;50.812;12.376;2024-03-06T12:49:48;21.70;34.10
38008;DHT22;75335;50.812;12.376;2024-03-06T12:52:17;21.40;33.40
38008;DHT22;75335;50.812;12.376;2024-03-06T13:19:35;18.60;38.60
38008;DHT22;75335;50.812;12.376;2024-03-06T13:22:05;18.10;39.80
38008;DHT22;75335;50.812;12.376;2024-03-06T13:24:39;18.00;39.70
38008;DHT22;75335;50.812;12.376;2024-03-06T13:27:11;17.80;40.20
38008;DHT22;75335;50.812;12.376;2024-03-06T13:29:39;17.30;41.50
38008;DHT22;75335;50.812;12.376;2024-03-06T13:32:33;17.20;42.10
38008;DHT22;75335;50.812;12.376;2024-03-06T13:35:19;17.10;42.80
38008;DHT22;75335;50.812;12.376;2024-03-06T13:37:55;17.00;43.30
38008;DHT22;75335;50.812;12.376;2024-03-06T13:40:36;16.90;43.40
38008;DHT22;75335;50.812;12.376;2024-03-06T13:43:14;16.90;43.50
38008;DHT22;75335;50.812;12.376;2024-03-06T13:45:48;16.90;43.90
38008;DHT22;75335;50.812;12.376;2024-03-06T13:48:18;16.70;43.80
38008;DHT22;75335;50.812;12.376;2024-03-06T13:50:48;16.40;44.50
38008;DHT22;75335;50.812;12.376;2024-03-06T13:53:16;16.00;45.60
38008;DHT22;75335;50.812;12.376;2024-03-06T13:55:46;15.90;46.00
38008;DHT22;75335;50.812;12.376;2024-03-06T13:58:22;15.90;46.00
38008;DHT22;75335;50.812;12.376;2024-03-06T14:01:08;16.00;45.90
38008;DHT22;75335;50.812;12.376;2024-03-06T14:03:39;16.00;46.10
38008;DHT22;75335;50.812;12.376;2024-03-06T14:06:17;15.60;48.00
38008;DHT22;75335;50.812;12.376;2024-03-06T14:09:37;15.60;47.50
38008;DHT22;75335;50.812;12.376;2024-03-06T14:13:27;15.40;48.00
38008;DHT22;75335;50.812;12.376;2024-03-06T14:16:27;15.00;48.20
38008;DHT22;75335;50.812;12.376;2024-03-06T14:19:12;14.80;48.70
38008;DHT22;75335;50.812;12.376;2024-03-06T14:22:11;14.70;49.10
38008;DHT22;75335;50.812;12.376;2024-03-06T14:24:47;14.60;49.00
38008;DHT22;75335;50.812;12.376;2024-03-06T14:27:29;14.60;49.20
38008;DHT22;75335;50.812;12.376;2024-03-06T14:30:07;14.50;49.50
38008;DHT22;75335;50.812;12.376;2024-03-06T14:32:42;14.50;49.30
38008;DHT22;75335;50.812;12.376;2024-03-06T14:35:10;14.50;49.30
38008;DHT22;75335;50.812;12.376;2024-03-06T14:37:44;14.20;49.20
38008;DHT22;75335;50.812;12.376;2024-03-06T14:40:42;14.00;50.20
38008;DHT22;75335;50.812;12.376;2024-03-06T14:43:10;14.10;50.10
38008;DHT22;75335;50.812;12.376;2024-03-06T14:45:46;13.90;50.20
38008;DHT22;75335;50.812;12.376;2024-03-06T14:48:14;14.00;50.40
38008;DHT22;75335;50.812;12.376;2024-03-06T14:50:45;13.90;50.40
38008;DHT22;75335;50.812;12.376;2024-03-06T14:53:30;14.00;50.30
38008;DHT22;75335;50.812;12.376;2024-03-06T14:56:21;13.90;50.70
38008;DHT22;75335;50.812;12.376;2024-03-06T14:59:18;13.80;51.20
38008;DHT22;75335;50.812;12.376;2024-03-06T15:01:49;13.50;51.00
38008;DHT22;75335;50.812;12.376;2024-03-06T15:04:17;13.30;51.10
38008;DHT22;75335;50.812;12.376;2024-03-06T15:06:46;13.20;51.10
38008;DHT22;75335;50.812;12.376;2024-03-06T15:09:21;13.00;51.80
38008;DHT22;75335;50.812;12.376;2024-03-06T15:12:12;12.90;51.80
38008;DHT22;75335;50.812;12.376;2024-03-06T15:14:41;13.00;52.10
38008;DHT22;75335;50.812;12.376;2024-03-06T15:17:33;13.00;52.30
38008;DHT22;75335;50.812;12.376;2024-03-06T15:20:13;13.10;51.80
38008;DHT22;75335;50.812;12.376;2024-03-06T15:22:51;13.10;51.00
38008;DHT22;75335;50.812;12.376;2024-03-06T15:25:50;13.00;51.90
38008;DHT22;75335;50.812;12.376;2024-03-06T15:28:20;13.00;52.00
38008;DHT22;75335;50.812;12.376;2024-03-06T15:31:13;13.00;52.50
38008;DHT22;75335;50.812;12.376;2024-03-06T15:33:49;13.00;52.30
38008;DHT22;75335;50.812;12.376;2024-03-06T15:36:17;12.90;52.80
38008;DHT22;75335;50.812;12.376;2024-03-06T15:38:47;12.90;52.90
38008;DHT22;75335;50.812;12.376;2024-03-06T15:44:39;12.90;54.00
38008;DHT22;75335;50.812;12.376;2024-03-06T15:47:07;12.70;54.70
38008;DHT22;75335;50.812;12.376;2024-03-06T15:49:35;12.70;54.30
38008;DHT22;75335;50.812;12.376;2024-03-06T15:52:03;12.60;54.80
38008;DHT22;75335;50.812;12.376;2024-03-06T15:54:31;12.70;54.60
38008;DHT22;75335;50.812;12.376;2024-03-06T15:57:02;12.60;54.10
38008;DHT22;75335;50.812;12.376;2024-03-06T15:59:32;12.10;55.20
38008;DHT22;75335;50.812;12.376;2024-03-06T16:02:02;12.10;55.50
38008;DHT22;75335;50.812;12.376;2024-03-06T16:04:30;12.20;55.00
38008;DHT22;75335;50.812;12.376;2024-03-06T16:06:59;12.30;55.50
38008;DHT22;75335;50.812;12.376;2024-03-06T16:09:27;12.00;56.80
38008;DHT22;75335;50.812;12.376;2024-03-06T16:11:55;11.90;56.80
38008;DHT22;75335;50.812;12.376;2024-03-06T16:14:25;11.90;56.70
38008;DHT22;75335;50.812;12.376;2024-03-06T16:16:54;11.80;57.00
38008;DHT22;75335;50.812;12.376;2024-03-06T16:19:22;11.70;56.80
38008;DHT22;75335;50.812;12.376;2024-03-06T16:21:50;11.60;56.50
38008;DHT22;75335;50.812;12.376;2024-03-06T16:24:18;11.70;56.30
38008;DHT22;75335;50.812;12.376;2024-03-06T16:26:50;11.60;56.20
38008;DHT22;75335;50.812;12.376;2024-03-06T16:29:19;11.60;56.50
38008;DHT22;75335;50.812;12.376;2024-03-06T16:31:50;11.60;56.60